KFOT - Fortuna, California, USA
Updated: Sat, 23-Jun-2018 11:40am PDT
Clear
Clear
 Wind from WNW
Wind: WNW 16 mph , 26 km/h
Temperature: 61°F , 16°C
Dew Point: 54°F , 12°C
Humidity: 77%
Barometer: 30.01 inHg , 1016.3 hPa
Clouds: Clear
Visibility: 10 miles , 16 km
2018/06/23 18:40 KFOT 231840Z AUTO 29014KT 10SM CLR 16/12 A3001 RMK AO1

Metar display script from Saratoga-Weather.org